Time;durP1;ratioP1;P1;durP2;ratioP2;P2;SDS_P1;SDS_P2;PMS_P1;PMS_P2;Temp;Humidity;BMP_temperature;BMP_pressure;BME280_temperature;BME280_humidity;BME280_pressure;Samples;Min_cycle;Max_cycle;Signal;HPM_P1;HPM_P2
2022/01/16 00:04:06;;;;;;;5.45;4.50;;;;;;;17.77;39.97;102385.22;4953147;29;20062;-90
2022/01/16 00:06:34;;;;;;;5.40;4.67;;;;;;;17.76;39.94;102403.38;4981666;28;20059;-89
2022/01/16 00:09:00;;;;;;;5.57;4.25;;;;;;;17.76;39.97;102389.81;5016910;28;20056;-89
2022/01/16 00:11:28;;;;;;;5.43;4.47;;;;;;;17.75;40.14;102392.63;4999720;28;20058;-90
2022/01/16 00:13:57;;;;;;;5.25;4.72;;;;;;;17.76;40.27;102386.22;5033350;28;20068;-90
2022/01/16 00:16:24;;;;;;;5.40;4.72;;;;;;;17.75;39.99;102393.50;5001727;28;20071;-90
2022/01/16 00:18:52;;;;;;;5.43;4.57;;;;;;;17.75;40.27;102401.66;5017035;28;20103;-89
2022/01/16 00:21:24;;;;;;;5.90;4.55;;;;;;;17.75;40.18;102392.63;4992053;28;20473;-89
2022/01/16 00:23:52;;;;;;;6.07;4.88;;;;;;;17.76;40.09;102380.78;5000145;28;20059;-89
2022/01/16 00:26:20;;;;;;;4.47;3.95;;;;;;;17.75;40.22;102385.34;5090649;28;20048;-89
2022/01/16 00:28:49;;;;;;;5.07;4.50;;;;;;;17.76;39.98;102380.78;5094169;28;20044;-90
2022/01/16 00:31:18;;;;;;;5.53;4.30;;;;;;;17.75;39.98;102369.06;5076368;28;20389;-90
2022/01/16 00:33:45;;;;;;;5.75;4.40;;;;;;;17.76;39.90;102368.06;5092172;28;20066;-90
2022/01/16 00:36:17;;;;;;;5.20;4.60;;;;;;;17.76;39.81;102381.66;5090500;28;20068;-89
2022/01/16 00:38:45;;;;;;;5.60;4.45;;;;;;;17.79;40.02;102394.13;5092761;28;20047;-89
2022/01/16 00:41:14;;;;;;;5.32;4.50;;;;;;;17.79;39.70;102405.88;5076847;28;20052;-90
2022/01/16 00:43:41;;;;;;;5.57;4.18;;;;;;;17.81;40.05;102399.44;5077197;28;20052;-89
2022/01/16 00:46:08;;;;;;;5.63;4.00;;;;;;;17.83;40.06;102392.03;5076328;28;20098;-90
2022/01/16 00:48:35;;;;;;;5.30;4.50;;;;;;;17.83;39.86;102384.75;5093230;28;20048;-89
2022/01/16 00:51:02;;;;;;;5.07;4.10;;;;;;;17.84;39.97;102382.94;5090507;28;20177;-90
2022/01/16 00:53:29;;;;;;;4.82;4.10;;;;;;;17.84;39.90;102400.13;5093780;28;20511;-89
2022/01/16 00:55:55;;;;;;;5.65;4.25;;;;;;;17.85;39.57;102384.69;5093642;28;20048;-89
2022/01/16 00:58:22;;;;;;;5.15;4.05;;;;;;;17.85;39.92;102362.94;5076837;28;20076;-89
2022/01/16 01:00:48;;;;;;;5.03;4.10;;;;;;;17.85;39.55;102352.94;5093538;28;20405;-89
2022/01/16 01:03:16;;;;;;;5.18;3.97;;;;;;;17.85;39.85;102339.34;5093390;28;20773;-90
2022/01/16 01:05:43;;;;;;;5.25;4.20;;;;;;;17.83;39.69;102362.16;5093333;28;20063;-88
2022/01/16 01:08:10;;;;;;;5.15;4.30;;;;;;;17.81;39.92;102348.69;5090754;28;20123;-90
2022/01/16 01:10:39;;;;;;;4.55;3.72;;;;;;;17.79;39.54;102359.66;5073829;28;20044;-90
2022/01/16 01:13:21;;;;;;;6.03;4.40;;;;;;;17.78;39.71;102357.94;5075067;28;20044;-88
2022/01/16 01:15:57;;;;;;;5.03;4.28;;;;;;;17.78;39.82;102362.50;5107721;28;20049;-90
2022/01/16 01:18:25;;;;;;;4.85;3.90;;;;;;;17.78;39.85;102349.78;5102364;28;20052;-89
2022/01/16 01:20:52;;;;;;;5.75;4.20;;;;;;;17.77;39.45;102350.78;5074667;28;20411;-90
2022/01/16 01:23:19;;;;;;;5.22;3.88;;;;;;;17.77;39.74;102347.19;5089958;28;20055;-89
2022/01/16 01:25:46;;;;;;;5.32;4.15;;;;;;;17.76;39.70;102330.03;5075948;28;20048;-89
2022/01/16 01:28:12;;;;;;;4.35;3.90;;;;;;;17.76;39.50;102338.16;5093311;28;20479;-90
2022/01/16 01:30:41;;;;;;;5.32;4.18;;;;;;;17.75;39.64;102352.75;5103635;28;20044;-89
2022/01/16 01:33:08;;;;;;;4.50;3.80;;;;;;;17.76;39.45;102349.03;5075583;28;20048;-89
2022/01/16 01:35:39;;;;;;;4.90;3.90;;;;;;;17.75;39.79;102344.59;5075276;28;20044;-89
2022/01/16 01:38:08;;;;;;;4.90;4.00;;;;;;;17.76;39.51;102304.69;5072531;28;20414;-90
2022/01/16 01:40:36;;;;;;;4.60;3.65;;;;;;;17.76;39.57;102280.25;5089645;28;20039;-90
2022/01/16 01:51:24;;;;;;;5.57;4.32;;;;;;;17.75;39.60;102284.81;5088233;28;20048;-91
2022/01/16 01:53:56;;;;;;;5.13;4.25;;;;;;;17.75;39.51;102302.97;5085807;28;20063;-90
2022/01/16 01:56:25;;;;;;;5.35;4.38;;;;;;;17.75;39.44;102290.25;5092239;28;20040;-91
2022/01/16 01:58:55;;;;;;;5.07;4.30;;;;;;;17.75;39.42;102311.97;5074597;28;20055;-90
2022/01/16 02:01:23;;;;;;;5.50;4.30;;;;;;;17.76;39.80;102326.44;5105802;28;20564;-90
2022/01/16 02:03:50;;;;;;;6.28;4.30;;;;;;;17.76;39.67;102326.44;5089998;28;20054;-90
2022/01/16 02:06:28;;;;;;;5.22;4.05;;;;;;;17.76;39.63;102329.16;5072061;28;20166;-90
2022/01/16 02:08:58;;;;;;;6.10;4.50;;;;;;;17.76;39.77;102348.19;5091539;28;20052;-90
2022/01/16 02:11:28;;;;;;;5.00;4.13;;;;;;;17.76;39.74;102343.59;5091299;28;20101;-90
2022/01/16 02:14:27;;;;;;;5.55;4.55;;;;;;;17.75;39.21;102341.00;5075401;28;20055;-90
2022/01/16 02:28:12;;;;;;;6.28;4.43;;;;;;;17.74;39.68;102356.44;5091633;28;20555;-90
2022/01/16 02:35:58;;;;;;;5.93;4.00;;;;;;;17.78;39.33;102363.38;5088376;28;20071;-90
2022/01/16 02:38:25;;;;;;;5.93;4.18;;;;;;;17.80;39.32;102371.41;5086956;28;20063;-90
2022/01/16 02:40:58;;;;;;;5.63;4.50;;;;;;;17.82;39.26;102366.72;5090913;28;20134;-90
2022/01/16 02:43:31;;;;;;;5.47;4.00;;;;;;;17.83;39.21;102357.59;5085873;28;20451;-90
2022/01/16 02:46:35;;;;;;;5.65;4.32;;;;;;;17.85;39.37;102352.06;5088315;28;20411;-90
2022/01/16 02:48:54;;;;;;;5.20;3.92;;;;;;;17.84;38.98;102351.19;5088771;28;20051;-90
2022/01/16 02:51:26;;;;;;;4.43;3.85;;;;;;;17.86;39.03;102348.34;5088346;28;20047;-90
2022/01/16 02:53:53;;;;;;;5.10;4.10;;;;;;;17.84;39.20;102345.75;5090780;28;20134;-89
2022/01/16 02:56:21;;;;;;;4.68;3.88;;;;;;;17.84;39.29;102334.03;5091062;28;20044;-91
2022/01/16 02:58:49;;;;;;;5.45;4.07;;;;;;;17.84;39.16;102323.16;5091108;28;20086;-90
2022/01/16 03:01:16;;;;;;;6.82;4.57;;;;;;;17.82;39.06;102320.53;5073670;28;20456;-90
2022/01/16 03:03:43;;;;;;;5.53;4.40;;;;;;;17.80;39.23;102314.34;5096161;28;20051;-91
2022/01/16 03:06:10;;;;;;;6.53;4.70;;;;;;;17.79;39.19;102313.47;5091021;28;20048;-90
2022/01/16 03:08:37;;;;;;;6.40;4.45;;;;;;;17.78;39.19;102317.19;5090841;28;20131;-91
2022/01/16 03:13:44;;;;;;;5.55;4.40;;;;;;;17.78;39.30;102306.31;5084543;28;20075;-91
2022/01/16 03:16:10;;;;;;;5.00;4.03;;;;;;;17.78;39.58;102300.00;5077424;28;20645;-91
2022/01/16 03:23:49;;;;;;;7.53;4.90;;;;;;;17.78;39.11;102309.03;5106162;28;20716;-89
2022/01/16 03:26:15;;;;;;;5.20;4.07;;;;;;;17.77;39.01;102301.84;5087417;28;20062;-91
2022/01/16 03:28:42;;;;;;;6.10;4.45;;;;;;;17.76;39.08;102297.41;5071589;28;20051;-91
2022/01/16 03:31:08;;;;;;;6.28;4.40;;;;;;;17.77;39.20;102295.56;5089962;28;20047;-90
2022/01/16 03:33:35;;;;;;;4.97;4.05;;;;;;;17.78;39.08;102294.56;5073003;28;20052;-90
2022/01/16 03:36:02;;;;;;;5.97;4.10;;;;;;;17.77;39.24;102279.25;5073581;28;20054;-90
2022/01/16 03:38:30;;;;;;;6.35;4.70;;;;;;;17.77;39.02;102268.38;5090643;28;20062;-91
2022/01/16 03:40:57;;;;;;;5.28;4.20;;;;;;;17.76;39.29;102272.97;5072761;28;20054;-91
2022/01/16 03:43:23;;;;;;;5.28;4.32;;;;;;;17.77;39.21;102269.25;5088919;28;20101;-91
2022/01/16 03:45:50;;;;;;;5.72;4.32;;;;;;;17.76;39.31;102264.81;5089063;28;20047;-90
2022/01/16 03:48:17;;;;;;;5.88;4.50;;;;;;;17.76;39.26;102263.94;5090437;28;20538;-91
2022/01/16 03:50:44;;;;;;;6.35;4.38;;;;;;;17.75;38.99;102284.81;5090897;28;20052;-90
2022/01/16 03:53:11;;;;;;;6.20;4.28;;;;;;;17.75;39.02;102283.94;5074000;28;20504;-91
2022/01/16 03:55:38;;;;;;;5.68;4.25;;;;;;;17.74;39.02;102283.06;5090444;28;20040;-91
2022/01/16 03:58:04;;;;;;;5.88;4.30;;;;;;;17.74;38.93;102282.22;5073009;28;20050;-91
2022/01/16 04:00:31;;;;;;;6.30;4.50;;;;;;;17.74;39.03;102290.38;5076558;28;20050;-91
2022/01/16 04:02:58;;;;;;;5.88;4.35;;;;;;;17.73;39.04;102278.63;5087548;28;20048;-91
2022/01/16 04:05:25;;;;;;;7.13;4.95;;;;;;;17.75;39.12;102283.94;5090123;28;20048;-91
2022/01/16 04:07:52;;;;;;;6.72;4.57;;;;;;;17.74;39.04;102283.06;5074389;28;20081;-91
2022/01/16 04:10:21;;;;;;;6.15;4.45;;;;;;;17.74;39.13;102283.06;5067446;28;20044;-90
2022/01/16 04:12:48;;;;;;;5.72;4.30;;;;;;;17.74;39.00;102285.78;5103139;28;20048;-91
2022/01/16 04:17:44;;;;;;;6.80;4.70;;;;;;;17.75;39.25;102275.78;5090227;28;20552;-91
2022/01/16 04:20:15;;;;;;;6.30;4.85;;;;;;;17.76;39.11;102272.09;5075991;28;20059;-90
2022/01/16 04:22:43;;;;;;;7.28;4.85;;;;;;;17.75;39.21;102268.50;5093618;28;20074;-91
2022/01/16 04:25:10;;;;;;;6.03;4.30;;;;;;;17.75;38.80;102260.34;5093303;28;20581;-90
2022/01/16 04:27:39;;;;;;;7.22;5.00;;;;;;;17.77;39.04;102260.22;5076772;28;20070;-91
2022/01/16 04:30:06;;;;;;;6.65;4.70;;;;;;;17.79;38.67;102269.13;5092961;28;20052;-91
2022/01/16 04:32:33;;;;;;;6.78;4.82;;;;;;;17.80;38.97;102260.00;5076682;28;20044;-91
2022/01/16 04:35:00;;;;;;;7.13;4.82;;;;;;;17.81;39.00;102266.28;5090821;28;20052;-90
2022/01/16 04:37:26;;;;;;;7.03;4.78;;;;;;;17.83;38.87;102275.19;5093404;28;20049;-91
2022/01/16 04:40:00;;;;;;;6.90;4.60;;;;;;;17.84;38.83;102264.22;5077179;28;20581;-90
2022/01/16 04:45:15;;;;;;;6.07;4.60;;;;;;;17.85;38.77;102267.81;5093472;28;20583;-91
2022/01/16 04:47:42;;;;;;;6.25;4.50;;;;;;;17.84;38.63;102266.09;5108111;28;20097;-90
2022/01/16 04:50:13;;;;;;;6.32;4.40;;;;;;;17.86;38.80;102267.69;5093346;28;20523;-91
2022/01/16 04:52:42;;;;;;;7.45;4.60;;;;;;;17.86;38.78;102266.81;5077019;28;20069;-91
2022/01/16 04:55:10;;;;;;;7.35;4.80;;;;;;;17.84;38.87;102261.50;5090647;28;20067;-90
2022/01/16 04:57:38;;;;;;;7.70;5.00;;;;;;;17.83;39.05;102264.31;5093319;28;20068;-90
2022/01/16 05:00:12;;;;;;;7.45;4.65;;;;;;;17.82;38.72;102270.75;5076777;28;20044;-91
2022/01/16 05:02:38;;;;;;;6.13;4.55;;;;;;;17.79;38.55;102258.25;5093160;28;20072;-91
2022/01/16 05:05:06;;;;;;;6.80;4.65;;;;;;;17.79;38.87;102255.53;5084489;28;20044;-90
2022/01/16 05:07:33;;;;;;;7.35;4.75;;;;;;;17.78;39.13;102257.41;5076420;28;20041;-90
2022/01/16 05:10:00;;;;;;;7.38;4.68;;;;;;;17.78;38.63;102243.81;5075877;28;20500;-90
2022/01/16 05:12:32;;;;;;;7.35;5.30;;;;;;;17.77;38.99;102230.34;5076225;28;20139;-91
2022/01/16 05:17:48;;;;;;;6.45;4.68;;;;;;;17.78;38.95;102234.78;5091110;28;19924;-90
2022/01/16 05:20:15;;;;;;;6.15;4.72;;;;;;;17.78;38.68;102235.66;5092468;28;20056;-90
2022/01/16 05:22:42;;;;;;;7.47;4.50;;;;;;;17.79;38.87;102240.09;5076260;28;20496;-90
2022/01/16 05:25:14;;;;;;;7.10;4.90;;;;;;;17.79;39.14;102231.94;5076109;28;20502;-90
2022/01/16 05:27:41;;;;;;;7.60;5.32;;;;;;;17.81;38.89;102229.09;5090316;28;20079;-90
2022/01/16 05:30:08;;;;;;;6.70;5.28;;;;;;;17.82;38.82;102235.41;5092579;28;20139;-90
2022/01/16 05:32:35;;;;;;;7.03;5.00;;;;;;;17.82;39.12;102228.13;5092527;28;20054;-91
2022/01/16 05:35:07;;;;;;;8.93;5.15;;;;;;;17.82;38.93;102225.41;5078600;28;20051;-90
2022/01/16 05:37:33;;;;;;;7.25;4.88;;;;;;;17.82;38.78;102238.13;5078865;28;20074;-91
2022/01/16 05:40:03;;;;;;;7.97;5.40;;;;;;;17.81;38.73;102233.69;5073126;28;20044;-90
2022/01/16 05:42:32;;;;;;;7.25;5.13;;;;;;;17.81;38.55;102236.41;5092363;28;20131;-91
2022/01/16 05:44:58;;;;;;;6.25;4.78;;;;;;;17.79;38.97;102236.53;5092145;28;20052;-90
2022/01/16 05:47:25;;;;;;;8.07;5.28;;;;;;;17.79;38.94;102229.22;5088833;28;20048;-90
2022/01/16 05:49:52;;;;;;;8.18;5.43;;;;;;;17.80;38.71;102240.97;5075318;28;20044;-91
2022/01/16 05:52:39;;;;;;;6.95;5.30;;;;;;;17.81;38.65;102245.41;5078336;28;20512;-91
2022/01/16 05:55:06;;;;;;;7.43;5.68;;;;;;;17.81;38.85;102250.84;5092066;28;20214;-90
2022/01/16 05:57:32;;;;;;;8.05;5.85;;;;;;;17.82;39.22;102240.84;5092079;28;20093;-91
2022/01/16 05:59:59;;;;;;;7.80;4.93;;;;;;;17.83;38.97;102239.84;5074899;28;20078;-91
2022/01/16 06:02:28;;;;;;;8.07;5.38;;;;;;;17.82;38.79;102241.72;5092798;28;20131;-90
2022/01/16 06:04:55;;;;;;;7.28;5.40;;;;;;;17.82;38.95;102232.69;5091530;28;20139;-91
2022/01/16 06:07:21;;;;;;;7.60;5.15;;;;;;;17.83;38.79;102234.41;5090045;28;20081;-91
2022/01/16 06:09:48;;;;;;;7.65;5.47;;;;;;;17.81;38.64;102231.81;5091758;28;20134;-91
2022/01/16 06:12:15;;;;;;;6.68;4.97;;;;;;;17.83;38.77;102224.41;5081764;28;20047;-91
2022/01/16 06:14:41;;;;;;;7.35;4.72;;;;;;;17.83;38.71;102229.84;5070338;28;20051;-90
2022/01/16 06:17:08;;;;;;;7.07;5.05;;;;;;;17.82;38.77;102225.41;5092166;28;20072;-90
2022/01/16 06:19:34;;;;;;;7.45;5.18;;;;;;;17.83;38.96;102227.13;5092647;28;20040;-91
2022/01/16 06:22:02;;;;;;;6.10;4.72;;;;;;;17.84;38.70;102228.03;5066863;28;20056;-92
2022/01/16 06:24:29;;;;;;;6.53;4.90;;;;;;;17.86;38.61;102234.22;5091914;28;20039;-91
2022/01/16 06:26:56;;;;;;;6.55;4.75;;;;;;;17.89;38.64;102243.00;5091583;28;20127;-89
2022/01/16 06:29:23;;;;;;;7.38;4.88;;;;;;;17.90;38.41;102242.00;5072628;28;20098;-92
2022/01/16 06:31:50;;;;;;;6.30;4.82;;;;;;;17.93;38.65;102240.88;5073757;28;20484;-91
2022/01/16 06:34:17;;;;;;;6.72;5.07;;;;;;;17.94;38.49;102245.34;5076273;28;20076;-91
2022/01/16 06:36:45;;;;;;;6.05;4.55;;;;;;;17.96;38.58;102249.66;5090806;28;20044;-90
2022/01/16 06:39:12;;;;;;;7.68;4.97;;;;;;;17.98;38.38;102257.69;5083963;28;20135;-90
2022/01/16 06:41:39;;;;;;;6.68;4.60;;;;;;;17.96;38.67;102257.81;5074058;28;20046;-91
2022/01/16 06:44:07;;;;;;;7.03;4.65;;;;;;;17.99;38.69;102262.13;5074400;28;20051;-89
2022/01/16 06:46:34;;;;;;;6.50;4.70;;;;;;;17.99;38.45;102257.56;5090487;28;20070;-91
2022/01/16 06:49:01;;;;;;;6.70;5.03;;;;;;;17.99;38.64;102256.72;5090643;28;20135;-90
2022/01/16 06:51:27;;;;;;;5.40;4.10;;;;;;;17.96;38.51;102260.53;5090660;28;20523;-89
2022/01/16 06:53:55;;;;;;;5.53;4.40;;;;;;;17.97;38.54;102264.13;5074089;28;20530;-90
2022/01/16 06:56:22;;;;;;;5.50;4.47;;;;;;;17.96;38.63;102270.53;5071537;28;20052;-91
2022/01/16 06:58:49;;;;;;;6.03;4.53;;;;;;;17.96;38.52;102265.97;5073755;28;20097;-91
2022/01/16 07:01:26;;;;;;;5.20;4.63;;;;;;;17.91;38.27;102276.34;5087738;28;20052;-90
2022/01/16 07:03:57;;;;;;;7.03;4.88;;;;;;;17.91;38.78;102275.47;5090235;28;20052;-90
2022/01/16 07:06:24;;;;;;;9.25;5.63;;;;;;;17.93;38.60;102265.34;5089595;28;20446;-90
2022/01/16 07:08:50;;;;;;;13.07;5.80;;;;;;;17.96;38.56;102274.13;5089942;28;20136;-90
2022/01/16 07:11:17;;;;;;;10.10;5.22;;;;;;;17.99;38.66;102281.16;5079087;28;20155;-90
2022/01/16 07:13:52;;;;;;;7.70;4.95;;;;;;;18.00;38.89;102274.75;5073815;28;20048;-91
2022/01/16 07:16:22;;;;;;;9.57;5.05;;;;;;;17.99;38.81;102281.16;5073471;28;20504;-90
2022/01/16 07:18:52;;;;;;;8.00;5.40;;;;;;;17.98;38.65;102287.59;5087962;28;20040;-90
2022/01/16 07:21:20;;;;;;;7.35;5.13;;;;;;;17.97;38.91;102294.00;5085997;28;20062;-90
2022/01/16 07:23:49;;;;;;;9.98;5.43;;;;;;;17.96;38.85;102306.75;5068533;28;20041;-90
2022/01/16 07:26:17;;;;;;;9.18;4.93;;;;;;;17.97;38.70;102304.88;5069608;28;20056;-90
2022/01/16 07:28:45;;;;;;;7.97;5.13;;;;;;;17.98;38.40;102307.47;5052752;28;20086;-90
2022/01/16 07:31:12;;;;;;;7.32;4.60;;;;;;;17.97;38.73;102308.47;5068729;28;20052;-90
2022/01/16 07:33:42;;;;;;;10.05;4.38;;;;;;;17.98;38.84;102312.94;5069136;28;20053;-90
2022/01/16 07:36:09;;;;;;;6.60;4.82;;;;;;;18.01;38.81;102309.97;5068704;28;20052;-90
2022/01/16 07:38:36;;;;;;;6.68;4.10;;;;;;;18.02;38.73;102333.44;5068656;28;20413;-90
2022/01/16 07:41:03;;;;;;;6.78;4.53;;;;;;;18.04;38.56;102336.03;5052005;28;20068;-90
2022/01/16 07:43:30;;;;;;;7.60;4.63;;;;;;;18.04;38.73;102319.72;5085804;28;20067;-90
2022/01/16 07:45:57;;;;;;;6.55;4.20;;;;;;;18.05;38.66;102316.03;5051840;28;20083;-90
2022/01/16 07:48:23;;;;;;;5.78;4.20;;;;;;;18.06;38.52;102323.19;5068205;28;20051;-90
2022/01/16 07:50:50;;;;;;;5.80;4.20;;;;;;;18.06;38.59;102331.34;5068293;28;20109;-90
2022/01/16 07:53:17;;;;;;;6.72;4.00;;;;;;;18.07;38.47;102330.34;5068560;28;20064;-90
2022/01/16 07:55:50;;;;;;;4.95;3.83;;;;;;;18.07;38.30;102335.78;5086737;28;20057;-90
2022/01/16 07:58:17;;;;;;;6.97;4.15;;;;;;;18.06;38.55;102351.25;5073481;28;20106;-89
2022/01/16 08:00:43;;;;;;;5.00;3.70;;;;;;;18.05;38.67;102354.09;5073108;28;20056;-89
2022/01/16 08:03:13;;;;;;;5.80;3.80;;;;;;;18.04;38.74;102353.22;5073098;28;20056;-90
2022/01/16 08:05:40;;;;;;;6.60;4.03;;;;;;;18.03;38.54;102351.47;5072571;28;20052;-90
2022/01/16 08:08:13;;;;;;;5.47;3.92;;;;;;;18.04;38.59;102357.78;5073124;28;20045;-91
2022/01/16 08:10:41;;;;;;;6.55;3.65;;;;;;;18.04;38.52;102355.06;5078814;28;20112;-90
2022/01/16 08:13:08;;;;;;;5.05;3.85;;;;;;;18.05;38.34;102348.66;5076176;28;20093;-89
2022/01/16 08:15:35;;;;;;;6.05;3.97;;;;;;;18.05;38.67;102348.66;5093357;28;20052;-89
2022/01/16 08:18:02;;;;;;;6.97;3.58;;;;;;;18.07;38.25;102354.81;5093335;28;20052;-90
2022/01/16 08:20:28;;;;;;;4.85;3.42;;;;;;;18.08;38.59;102351.13;5092288;28;20059;-88
2022/01/16 08:22:55;;;;;;;7.03;3.35;;;;;;;18.10;38.76;102351.88;5092097;28;20071;-90
2022/01/16 08:25:23;;;;;;;5.07;3.65;;;;;;;18.13;38.44;102342.59;5089407;28;20042;-89
2022/01/16 08:27:51;;;;;;;6.38;3.63;;;;;;;18.16;38.26;102334.19;5092033;28;20059;-90
2022/01/16 08:30:18;;;;;;;4.68;3.28;;;;;;;18.17;38.25;102335.94;5091946;28;20044;-89
2022/01/16 08:32:44;;;;;;;4.05;3.13;;;;;;;18.18;38.48;102333.09;5075186;28;20051;-89
2022/01/16 08:35:16;;;;;;;4.20;3.22;;;;;;;18.19;38.27;102331.22;5075654;28;20051;-90
2022/01/16 08:37:45;;;;;;;4.20;3.00;;;;;;;18.19;38.35;102342.13;5091622;28;20044;-89
2022/01/16 08:40:13;;;;;;;3.08;2.65;;;;;;;18.18;38.31;102338.53;5071696;28;20053;-89
2022/01/16 08:42:40;;;;;;;4.72;3.30;;;;;;;18.20;38.32;102346.56;5072340;28;20064;-89
2022/01/16 08:45:07;;;;;;;2.85;2.50;;;;;;;18.21;38.23;102342.84;5072327;28;20463;-90
2022/01/16 08:47:48;;;;;;;4.32;3.15;;;;;;;18.20;38.26;102342.00;5072813;28;20044;-89
2022/01/16 08:50:21;;;;;;;4.57;3.30;;;;;;;18.18;38.34;102346.69;5073071;28;20048;-89
2022/01/16 08:52:48;;;;;;;3.72;2.85;;;;;;;18.17;38.63;102355.84;5073034;28;20044;-89
2022/01/16 08:55:15;;;;;;;3.65;2.80;;;;;;;18.18;38.20;102353.97;5077641;23;20083;-64
2022/01/16 08:57:42;;;;;;;4.20;2.95;;;;;;;18.16;38.42;102354.09;5073911;28;20517;-71
2022/01/16 09:00:10;;;;;;;4.53;2.80;;;;;;;18.17;38.33;102361.28;5073196;28;20482;-70
2022/01/16 09:02:36;;;;;;;3.83;3.10;;;;;;;18.17;38.74;102364.00;5061892;28;20051;-71
2022/01/16 09:05:04;;;;;;;3.92;2.70;;;;;;;18.19;38.52;102372.03;5073939;28;20503;-70
2022/01/16 09:07:31;;;;;;;3.58;2.80;;;;;;;18.19;38.56;102366.59;5073565;28;20140;-70
2022/01/16 09:10:00;;;;;;;3.60;2.42;;;;;;;18.19;38.34;102367.44;5073079;28;21015;-70
2022/01/16 09:12:27;;;;;;;3.70;2.70;;;;;;;18.19;38.32;102364.72;5073695;28;20036;-70
2022/01/16 09:14:54;;;;;;;4.10;2.50;;;;;;;18.18;38.50;102367.56;5061287;28;20487;-70
2022/01/16 09:17:22;;;;;;;3.10;2.58;;;;;;;18.19;38.17;102377.47;5059097;28;20399;-71
2022/01/16 09:19:53;;;;;;;4.55;2.45;;;;;;;18.18;38.09;102376.59;5063399;28;20090;-70
2022/01/16 09:22:19;;;;;;;3.00;2.40;;;;;;;18.18;38.60;102386.59;5076946;28;20037;-70
2022/01/16 09:24:46;;;;;;;3.50;2.35;;;;;;;18.18;38.72;102387.47;5070210;28;20044;-70
2022/01/16 09:27:13;;;;;;;2.92;2.30;;;;;;;18.20;38.60;102387.34;5056190;28;20051;-70
2022/01/16 09:29:39;;;;;;;2.70;2.15;;;;;;;18.19;38.33;102383.75;5053469;28;20143;-70
2022/01/16 09:32:07;;;;;;;3.60;2.20;;;;;;;18.20;38.69;102387.34;5050589;28;20472;-70
2022/01/16 09:34:33;;;;;;;3.88;2.47;;;;;;;18.19;38.33;102388.34;5061086;28;20045;-70
2022/01/16 09:37:04;;;;;;;3.28;2.30;;;;;;;18.18;38.36;102392.91;5052665;28;20052;-70
2022/01/16 09:39:31;;;;;;;3.28;2.25;;;;;;;18.19;38.46;102399.22;5052708;28;20045;-70
2022/01/16 09:41:57;;;;;;;3.75;2.33;;;;;;;18.17;38.29;102396.63;5052026;28;20049;-70
2022/01/16 09:44:24;;;;;;;17.60;9.57;;;;;;;18.10;38.26;102406.25;5052974;28;20045;-69
2022/01/16 09:46:51;;;;;;;4.15;3.05;;;;;;;18.09;38.45;102410.81;5053360;28;20392;-70
2022/01/16 09:49:18;;;;;;;5.38;3.47;;;;;;;18.13;38.44;102403.28;5050934;28;20106;-68
2022/01/16 09:51:45;;;;;;;10.23;3.80;;;;;;;18.17;38.79;102412.06;5052630;28;20115;-70
2022/01/16 09:54:12;;;;;;;8.40;3.88;;;;;;;18.17;38.41;102412.94;5052791;28;20403;-68
2022/01/16 09:56:39;;;;;;;7.63;4.05;;;;;;;18.18;39.02;102416.53;5055542;28;20049;-68
2022/01/16 09:59:06;;;;;;;5.88;3.70;;;;;;;18.19;38.63;102424.56;5057720;28;20036;-68
2022/01/16 10:01:33;;;;;;;9.55;4.32;;;;;;;18.21;38.68;102416.28;5051831;28;20476;-68
2022/01/16 10:04:00;;;;;;;6.32;3.70;;;;;;;18.21;38.67;102419.88;5062763;28;20098;-68
2022/01/16 10:06:27;;;;;;;9.00;3.63;;;;;;;18.21;38.98;102422.59;5052911;28;20057;-68
2022/01/16 10:08:56;;;;;;;7.88;4.03;;;;;;;18.22;38.50;102432.47;5056912;28;20041;-69
2022/01/16 10:11:23;;;;;;;5.40;3.30;;;;;;;18.23;38.91;102431.50;5051705;28;20522;-68
2022/01/16 10:14:13;;;;;;;5.72;3.00;;;;;;;18.24;38.97;102433.22;5052461;28;20079;-68
2022/01/16 10:16:41;;;;;;;6.70;3.22;;;;;;;18.24;38.66;102427.78;5052479;28;20045;-68
2022/01/16 10:19:30;;;;;;;5.10;2.95;;;;;;;18.25;38.72;102437.69;5053088;28;20036;-68
2022/01/16 10:22:11;;;;;;;4.47;3.10;;;;;;;18.28;38.53;102451.03;5058687;28;20053;-68
2022/01/16 10:24:39;;;;;;;4.25;2.83;;;;;;;18.28;38.50;102445.59;5057214;28;20044;-68
2022/01/16 10:27:08;;;;;;;5.07;2.97;;;;;;;18.29;38.82;102449.19;5058029;28;20446;-68
2022/01/16 10:29:40;;;;;;;4.28;2.70;;;;;;;18.30;38.66;102445.47;5070646;28;20044;-70
2022/01/16 10:32:21;;;;;;;5.50;2.75;;;;;;;18.32;38.85;102446.22;5071821;28;20052;-71
2022/01/16 10:34:51;;;;;;;4.78;2.90;;;;;;;18.30;38.42;102451.78;5072120;28;20136;-71
2022/01/16 10:37:30;;;;;;;6.68;3.00;;;;;;;18.30;38.40;102459.94;5071735;28;20056;-71
2022/01/16 10:40:10;;;;;;;4.35;2.92;;;;;;;18.30;38.62;102456.34;5071011;28;20044;-70
2022/01/16 10:42:39;;;;;;;5.18;3.33;;;;;;;18.29;38.94;102458.19;5071809;28;20044;-70
2022/01/16 10:45:12;;;;;;;4.20;2.67;;;;;;;18.29;38.80;102463.66;5072117;28;20151;-71
2022/01/16 10:47:44;;;;;;;5.75;2.90;;;;;;;18.28;38.80;102467.34;5070700;28;20059;-70
2022/01/16 10:50:21;;;;;;;5.63;2.85;;;;;;;18.28;38.56;102459.19;5071144;28;20049;-70
2022/01/16 10:52:52;;;;;;;4.03;2.75;;;;;;;18.26;38.63;102452.13;5071710;28;20048;-71
2022/01/16 10:55:23;;;;;;;11.77;7.47;;;;;;;18.15;39.05;102463.84;5065639;28;20395;-71
2022/01/16 10:57:50;;;;;;;8.27;3.90;;;;;;;18.05;39.19;102460.09;5063370;28;20044;-71
2022/01/16 11:00:21;;;;;;;8.77;5.13;;;;;;;18.04;38.96;102458.38;5068915;28;20072;-71
2022/01/16 11:02:52;;;;;;;8.20;5.30;;;;;;;18.08;39.43;102457.16;5066298;28;20044;-71
2022/01/16 11:05:20;;;;;;;10.90;5.63;;;;;;;18.12;39.03;102457.78;5059031;28;20487;-71
2022/01/16 11:08:00;;;;;;;10.48;4.93;;;;;;;18.14;39.33;102461.25;5059892;28;20127;-71
2022/01/16 11:10:33;;;;;;;9.10;5.20;;;;;;;18.17;39.22;102467.31;5064954;28;20422;-70
2022/01/16 11:13:06;;;;;;;12.55;5.55;;;;;;;18.18;39.30;102463.63;5060723;28;20040;-70
2022/01/16 11:15:35;;;;;;;13.38;5.82;;;;;;;18.20;39.58;102464.34;5058273;28;20049;-70
2022/01/16 11:18:03;;;;;;;10.48;6.03;;;;;;;18.20;39.67;102472.53;5054447;28;20604;-70
2022/01/16 11:20:34;;;;;;;8.85;5.97;;;;;;;18.21;39.54;102473.38;5070948;28;20047;-65
2022/01/16 11:23:14;;;;;;;9.07;5.65;;;;;;;18.22;39.55;102470.53;5071506;28;20052;-70
2022/01/16 11:25:43;;;;;;;9.60;5.10;;;;;;;18.21;39.20;102470.66;5054122;28;20381;-66
2022/01/16 11:28:16;;;;;;;11.50;6.10;;;;;;;18.21;39.39;102478.81;5053203;28;20055;-67
2022/01/16 11:30:47;;;;;;;9.02;5.30;;;;;;;18.19;39.66;102475.34;5072695;28;20048;-65
2022/01/16 11:33:21;;;;;;;9.80;5.20;;;;;;;18.19;39.70;102472.63;5075277;28;20044;-66
2022/01/16 11:35:55;;;;;;;12.88;5.93;;;;;;;18.19;39.53;102473.50;5075528;28;20079;-65
2022/01/16 11:38:26;;;;;;;12.32;5.18;;;;;;;18.18;39.45;102469.06;5074864;28;20127;-66
2022/01/16 11:40:53;;;;;;;11.05;5.43;;;;;;;18.22;39.54;102475.97;5075096;28;20135;-65
2022/01/16 11:43:23;;;;;;;7.47;4.93;;;;;;;18.22;39.52;102467.81;5073612;28;20041;-65
2022/01/16 11:46:04;;;;;;;8.98;5.07;;;;;;;18.22;39.74;102467.81;5063479;28;20650;-66
2022/01/16 11:48:34;;;;;;;7.45;4.55;;;;;;;18.22;39.60;102473.28;5072156;28;20056;-66
2022/01/16 11:51:37;;;;;;;7.70;4.75;;;;;;;18.22;39.57;102470.53;5065578;28;20044;-67
2022/01/16 11:54:12;;;;;;;7.25;4.40;;;;;;;18.22;39.67;102462.38;5067784;28;20640;-66
2022/01/16 11:56:45;;;;;;;8.57;5.72;;;;;;;18.22;39.62;102461.53;5070233;28;20041;-66
2022/01/16 11:59:12;;;;;;;8.98;4.80;;;;;;;18.22;39.63;102459.66;5069916;28;20086;-66
2022/01/16 12:02:01;;;;;;;8.27;4.57;;;;;;;18.22;39.83;102458.81;5063800;28;20491;-67
2022/01/16 12:04:28;;;;;;;10.70;4.95;;;;;;;18.21;39.83;102457.94;5075776;28;20083;-67
2022/01/16 12:06:58;;;;;;;6.85;4.55;;;;;;;18.21;39.71;102463.38;5067129;28;20048;-67
2022/01/16 12:12:23;;;;;;;5.32;3.90;;;;;;;18.25;39.82;102473.03;5065712;28;20049;-68
2022/01/16 12:15:02;;;;;;;5.72;4.25;;;;;;;18.27;39.33;102470.19;5059480;28;20052;-67
2022/01/16 12:17:32;;;;;;;5.85;4.03;;;;;;;18.28;39.59;102469.19;5070714;28;20044;-71
2022/01/16 12:20:20;;;;;;;6.80;4.00;;;;;;;18.33;39.44;102467.00;5061974;28;20067;-67